| time (UTC) | temp F | wind direction | speed knots | gust knots | rain 1hr in | rain 24hr in | rain mn in | humidity % | barometer mb |
| 20260509041924 | 72 | 180 | 13.0 | 13.0 | 0.00 | 0.00 | 0.00 | 80 | 1009.0 |
| 20260509034924 | 72 | 180 | 13.0 | 13.0 | 0.00 | 0.00 | 0.00 | 79 | 1009.0 |
| 20260509031924 | 72 | 180 | 13.0 | 13.0 | 0.00 | 0.00 | 0.00 | 79 | 1009.0 |
| 20260509024924 | 72 | 180 | 13.0 | 13.0 | 0.00 | 0.00 | 0.00 | 78 | 1009.0 |
| 20260509014925 | 73 | 180 | 13.0 | 13.0 | 0.00 | 0.00 | 0.00 | 76 | 1008.0 |
| 20260509004925 | 74 | 180 | 13.0 | 13.0 | 0.00 | 0.00 | 0.00 | 72 | 1007.0 |
| 20260509001924 | 76 | 170 | 12.2 | 12.2 | 0.00 | 0.00 | 0.00 | 70 | 1007.0 |
| 20260508234924 | 76 | 170 | 12.2 | 12.2 | 0.00 | 0.00 | 0.00 | 69 | 1007.0 |
| 20260508231924 | 78 | 170 | 12.2 | 12.2 | 0.00 | 0.00 | 0.00 | 67 | 1008.0 |
| 20260508224924 | 79 | 170 | 12.2 | 12.2 | 0.00 | 0.00 | 0.00 | 67 | 1007.0 |
| 20260508221924 | 79 | 170 | 12.2 | 12.2 | 0.00 | 0.00 | 0.00 | 65 | 1008.0 |
| 20260508214924 | 79 | 170 | 12.2 | 12.2 | 0.00 | 0.00 | 0.00 | 65 | 1007.0 |
| 20260508211924 | 79 | 170 | 12.2 | 12.2 | 0.00 | 0.00 | 0.00 | 66 | 1009.0 |
| 20260508204925 | 78 | 170 | 7.8 | 7.8 | 0.00 | 0.00 | 0.00 | 64 | 1009.0 |
| 20260508201924 | 78 | 170 | 7.8 | 7.8 | 0.00 | 0.00 | 0.00 | 63 | 1010.0 |
| 20260508194924 | 79 | 276 | 5.2 | 10.4 | 0.00 | 0.00 | 0.00 | 63 | 1009.0 |
| 20260508184924 | 78 | 276 | 5.2 | 10.4 | 0.00 | 0.00 | 0.00 | 61 | 1011.0 |
| 20260508174924 | 76 | 276 | 5.2 | 10.4 | 0.00 | 0.00 | 0.00 | 62 | 1012.0 |
| 20260508171924 | 74 | 276 | 5.2 | 10.4 | 0.00 | 0.00 | 0.00 | 64 | 1013.0 |
| 20260508164924 | 73 | 276 | 5.2 | 10.4 | 0.00 | 0.00 | 0.00 | 66 | 1013.0 |
| 20260508154924 | 69 | 110 | 3.5 | 5.2 | 0.00 | 0.00 | 0.00 | 70 | 1014.0 |
| 20260508151924 | 68 | 110 | 3.5 | 5.2 | 0.00 | 0.00 | 0.00 | 73 | 1014.0 |
| 20260508144924 | 67 | 110 | 3.5 | 5.2 | 0.00 | 0.00 | 0.00 | 75 | 1014.0 |
| 20260508131926 | 62 | 190 | 9.6 | 9.6 | 0.00 | 0.00 | 0.00 | 88 | 1014.0 |
| 20260508124925 | 61 | 190 | 9.6 | 9.6 | 0.05 | 0.00 | 0.00 | 88 | 1014.0 |
| 20260508121924 | 61 | 145 | 1.7 | 2.6 | 0.00 | 0.00 | 0.00 | 88 | 1014.0 |
| 20260508104924 | 61 | 170 | 4.3 | 4.3 | 0.00 | 0.00 | 0.00 | 88 | 1014.0 |
| 20260508094924 | 61 | 169 | 1.7 | 1.7 | 0.00 | 0.00 | 0.00 | 88 | 1014.0 |
| 20260508081924 | 62 | 100 | 2.6 | 2.6 | 0.00 | 0.00 | 0.00 | 82 | 1015.0 |
| 20260508074924 | 62 | 100 | 2.6 | 2.6 | 0.00 | 0.00 | 0.00 | 81 | 1015.0 |
| 20260508071924 | 61 | 100 | 2.6 | 2.6 | 0.00 | 0.00 | 0.00 | 81 | 1015.0 |
| 20260508064924 | 61 | 129 | 1.7 | 1.7 | 0.00 | 0.00 | 0.00 | 81 | 1015.0 |
| 20260508061924 | 61 | 129 | 1.7 | 1.7 | 0.00 | 0.00 | 0.00 | 80 | 1015.0 |
| 20260508054925 | 61 | 0 | 0.0 | 0.0 | 0.00 | 0.00 | 0.00 | 79 | 1016.0 |